Burtonwood, United Kingdom
Current Conditions -  °F | °C
As of 9:50 PM on Thursday 23 Oct 2014 (Local Time) from EGGP Reporting Station
Few Clouds Few Clouds  
Wind Chill: 59°   Ceiling: Unl
Heat Index: 59°   Visibility: 6mi
Dew Point: 52°   Wind: 12mph
Humidity: 77%   Direction: 230°SW
Pressure: 29.88"   Gusts: NA
Location:  53.43°N, 2.66°W
Report Text: EGGP 232050Z 23010KT 9999 FEW040 15/11 Q1012
Loading
Personal Weather Stations






























Interactive Weather Map
Tropical Storm Tracking
New forecast layout! Learn more

10-Day Weather Forecast

Advertisements
Track Severe Weather on mobile